Sullivan, Wisconsin
Current Conditions -  °F | °C
As of 4:15 AM on Tuesday 21 Oct 2014 (Local Time) from KRYV Reporting Station
Overcast Overcast  
Wind Chill: 43°   Ceiling: 4000
Heat Index: 46°   Visibility: 10mi
Dew Point: 38°   Wind: 6mph
Humidity: 75%   Direction: 360°N
Pressure: 30.07"   Gusts: NA
Location:  43.01°N, 88.59°W
Report Text: KRYV 210915Z AUTO 36005KT 10SM OVC040 08/04 A3007 RMK AO2 T00760035
Loading
Personal Weather Stations






























Interactive Weather Map
Tropical Storm Tracking
New forecast layout! Learn more

10-Day Weather Forecast

Advertisements
Track Severe Weather on mobile